createdAt,value
2018-12-26T00:01:19.129Z,14.25
2018-12-26T00:03:49.656Z,15.03
2018-12-26T00:06:20.057Z,14.13
2018-12-26T00:11:54.160Z,15.85
2018-12-26T00:20:07.229Z,20.92
2018-12-26T00:22:37.539Z,12.93
2018-12-26T00:25:07.829Z,14.50
2018-12-26T00:27:38.263Z,15.72
2018-12-26T00:33:06.243Z,13.68
2018-12-26T00:38:26.254Z,13.72
2018-12-26T00:40:56.590Z,14.10
2018-12-26T00:43:26.937Z,12.60
2018-12-26T00:45:57.303Z,12.40
2018-12-26T00:48:48.043Z,9.93
2018-12-26T00:51:37.530Z,8.95
2018-12-26T00:57:06.195Z,9.55
2018-12-26T00:59:36.565Z,11.40
2018-12-26T01:02:25.778Z,9.48
2018-12-26T01:04:56.125Z,9.13
2018-12-26T01:07:26.444Z,8.50
2018-12-26T01:09:56.831Z,11.08
2018-12-26T01:12:27.108Z,10.58
2018-12-26T01:14:57.434Z,7.47
2018-12-26T01:23:06.761Z,11.35
2018-12-26T01:28:52.321Z,9.90
2018-12-26T01:31:22.610Z,9.45
2018-12-26T01:33:52.857Z,9.73
2018-12-26T01:36:23.268Z,10.58
2018-12-26T01:38:53.581Z,8.90
2018-12-26T01:44:14.779Z,8.10
2018-12-26T01:46:45.071Z,7.58
2018-12-26T01:49:15.531Z,10.60
2018-12-26T01:52:24.772Z,9.00
2018-12-26T01:55:13.801Z,9.23
2018-12-26T01:57:44.155Z,8.30
2018-12-26T02:00:14.322Z,9.03
2018-12-26T02:02:44.425Z,7.67
2018-12-26T02:05:14.800Z,6.72
2018-12-26T02:07:45.122Z,11.18
2018-12-26T02:10:15.446Z,8.43
2018-12-26T02:12:45.811Z,10.03
2018-12-26T02:15:16.111Z,7.83
2018-12-26T02:17:46.405Z,8.83
2018-12-26T02:20:16.716Z,9.73
2018-12-26T02:22:46.995Z,8.43
2018-12-26T02:25:36.551Z,8.70
2018-12-26T02:28:06.870Z,7.60
2018-12-26T02:33:43.829Z,6.55
2018-12-26T02:36:25.408Z,11.15
2018-12-26T02:38:55.843Z,8.85
2018-12-26T02:41:26.190Z,10.53
2018-12-26T02:43:56.452Z,8.63
2018-12-26T02:46:26.780Z,12.58
2018-12-26T02:48:57.091Z,10.32
2018-12-26T02:51:46.162Z,8.45
2018-12-26T02:54:17.017Z,8.13
2018-12-26T02:56:49.084Z,10.70
2018-12-26T02:59:19.792Z,8.70
2018-12-26T03:02:10.329Z,7.85
2018-12-26T03:04:40.698Z,9.13
2018-12-26T03:07:11.145Z,6.58
2018-12-26T03:09:41.432Z,10.53
2018-12-26T03:15:06.707Z,11.30
2018-12-26T03:17:57.091Z,10.08
2018-12-26T03:20:47.627Z,8.33
2018-12-26T03:31:53.967Z,10.55
2018-12-26T03:40:24.850Z,8.85
2018-12-26T03:46:13.496Z,8.98
2018-12-26T03:49:03.848Z,11.60
2018-12-26T04:03:35.966Z,9.53
2018-12-26T04:06:06.231Z,11.08
2018-12-26T04:17:41.593Z,7.95
2018-12-26T04:20:50.628Z,12.20
2018-12-26T04:23:59.800Z,9.70
2018-12-26T04:29:21.240Z,9.00
2018-12-26T04:35:03.289Z,9.70
2018-12-26T04:44:01.763Z,9.15
2018-12-26T04:52:16.573Z,8.73
2018-12-26T04:54:46.919Z,7.78
2018-12-26T05:11:43.753Z,8.48
2018-12-26T05:34:51.998Z,11.38
2018-12-26T05:45:55.442Z,10.30
2018-12-26T05:51:44.447Z,8.10
2018-12-26T05:54:14.745Z,9.48
2018-12-26T05:56:45.030Z,11.53
2018-12-26T06:02:09.895Z,14.85
2018-12-26T06:04:40.278Z,10.38
2018-12-26T06:07:10.470Z,15.95
2018-12-26T06:09:59.596Z,16.60
2018-12-26T06:12:30.022Z,18.45
2018-12-26T06:15:19.132Z,16.70
2018-12-26T06:17:49.734Z,15.15
2018-12-26T06:26:24.163Z,15.65
2018-12-26T06:28:54.506Z,12.00
2018-12-26T06:34:37.400Z,13.68
2018-12-26T06:46:14.260Z,14.10
2018-12-26T07:02:53.920Z,11.03
2018-12-26T07:08:15.308Z,12.75
2018-12-26T07:11:23.065Z,11.63
2018-12-26T07:13:53.579Z,13.70
2018-12-26T07:16:23.892Z,13.40
2018-12-26T07:24:45.790Z,13.48
2018-12-26T07:32:49.166Z,12.50
2018-12-26T07:38:40.130Z,14.40
2018-12-26T07:41:21.102Z,13.18
2018-12-26T07:43:51.649Z,15.00
2018-12-26T07:46:21.906Z,15.38
2018-12-26T07:48:52.168Z,18.55
2018-12-26T07:54:20.660Z,15.03
2018-12-26T07:59:59.939Z,17.20
2018-12-26T08:03:09.064Z,13.75
2018-12-26T08:08:32.760Z,14.85
2018-12-26T08:14:02.414Z,13.00
2018-12-26T08:16:32.820Z,12.45
2018-12-26T08:25:09.587Z,11.80
2018-12-26T08:27:50.469Z,15.65
2018-12-26T08:30:21.124Z,11.70
2018-12-26T08:36:06.105Z,13.15
2018-12-26T08:41:33.649Z,14.10
2018-12-26T08:49:50.392Z,12.58
2018-12-26T08:52:40.949Z,14.10
2018-12-26T08:55:11.348Z,10.70
2018-12-26T08:57:41.695Z,11.78
2018-12-26T09:00:12.003Z,11.65
2018-12-26T09:02:42.399Z,15.03
2018-12-26T09:05:12.712Z,10.78
2018-12-26T09:07:43.038Z,11.95
2018-12-26T09:10:13.349Z,11.80
2018-12-26T09:12:43.536Z,13.78
2018-12-26T09:21:21.512Z,11.03
2018-12-26T09:23:51.881Z,12.63
2018-12-26T09:26:22.227Z,12.75
2018-12-26T09:28:52.604Z,11.18
2018-12-26T09:31:23.084Z,10.18
2018-12-26T09:33:53.571Z,12.65
2018-12-26T09:36:23.901Z,10.68
2018-12-26T09:41:43.599Z,14.58
2018-12-26T09:44:13.886Z,11.68
2018-12-26T09:46:44.169Z,14.55
2018-12-26T09:49:14.598Z,12.35
2018-12-26T09:51:44.848Z,16.93
2018-12-26T09:54:15.136Z,14.23
2018-12-26T09:57:04.325Z,19.48
2018-12-26T10:05:11.099Z,15.03
2018-12-26T10:07:41.586Z,12.25
2018-12-26T10:10:30.723Z,11.28
2018-12-26T10:16:02.958Z,11.48
2018-12-26T10:24:21.091Z,11.12
2018-12-26T10:26:51.334Z,11.28
2018-12-26T10:29:21.718Z,14.23
2018-12-26T10:31:52.052Z,13.35
2018-12-26T10:34:22.539Z,30.20
2018-12-26T10:37:11.642Z,9.70
2018-12-26T10:39:42.009Z,10.70
2018-12-26T10:42:12.426Z,12.68
2018-12-26T10:47:38.467Z,11.08
2018-12-26T10:50:11.105Z,10.90
2018-12-26T10:52:41.436Z,11.80
2018-12-26T10:58:08.455Z,13.20
2018-12-26T11:00:38.806Z,21.60
2018-12-26T11:03:48.162Z,17.52
2018-12-26T11:06:18.642Z,19.12
2018-12-26T11:08:48.984Z,10.32
2018-12-26T11:11:19.400Z,10.10
2018-12-26T11:13:50.136Z,12.50
2018-12-26T11:16:20.866Z,14.20
2018-12-26T11:19:11.336Z,11.70
2018-12-26T11:21:43.351Z,10.75
2018-12-26T11:24:13.617Z,13.22
2018-12-26T11:26:43.958Z,12.37
2018-12-26T11:29:18.494Z,9.98
2018-12-26T11:31:46.526Z,15.78
2018-12-26T11:34:16.863Z,10.60
2018-12-26T11:36:47.095Z,10.38
2018-12-26T11:39:36.277Z,10.65
2018-12-26T11:47:54.003Z,7.20
2018-12-26T11:53:40.059Z,9.03
2018-12-26T11:56:10.444Z,14.68
2018-12-26T11:59:01.092Z,14.45
2018-12-26T12:01:31.497Z,19.62
2018-12-26T12:04:01.811Z,13.80
2018-12-26T12:06:32.268Z,14.55
2018-12-26T12:09:02.587Z,12.33
2018-12-26T12:11:53.218Z,13.20
2018-12-26T12:14:23.885Z,12.43
2018-12-26T12:17:13.008Z,13.22
2018-12-26T12:22:35.635Z,12.33
2018-12-26T12:25:05.971Z,10.25
2018-12-26T12:27:36.302Z,14.03
2018-12-26T12:30:07.526Z,11.45
2018-12-26T12:32:37.760Z,12.60
2018-12-26T12:35:08.515Z,12.90
2018-12-26T12:37:57.652Z,10.82
2018-12-26T12:43:15.366Z,8.88
2018-12-26T12:49:00.507Z,9.90
2018-12-26T12:51:31.184Z,11.35
2018-12-26T12:54:01.540Z,11.75
2018-12-26T12:56:50.651Z,10.93
2018-12-26T12:59:32.174Z,16.50
2018-12-26T13:02:02.536Z,6.30
2018-12-26T13:04:51.650Z,7.45
2018-12-26T13:07:22.000Z,9.93
2018-12-26T13:09:52.293Z,9.45
2018-12-26T13:12:22.554Z,7.47
2018-12-26T13:14:52.857Z,10.55
2018-12-26T13:17:23.198Z,9.77
2018-12-26T13:19:53.520Z,15.15
2018-12-26T13:22:23.840Z,9.90
2018-12-26T13:34:07.315Z,9.18
2018-12-26T13:36:37.723Z,9.80
2018-12-26T13:39:09.099Z,8.25
2018-12-26T13:41:51.601Z,7.25
2018-12-26T13:44:22.271Z,8.63
2018-12-26T13:50:17.064Z,8.70
2018-12-26T13:58:48.565Z,9.28
2018-12-26T14:01:18.893Z,9.78
2018-12-26T14:03:49.029Z,9.03
2018-12-26T14:06:19.404Z,11.35
2018-12-26T14:11:42.890Z,13.08
2018-12-26T14:14:13.162Z,12.73
2018-12-26T14:16:43.424Z,9.38
2018-12-26T14:19:13.834Z,9.40
2018-12-26T14:21:44.128Z,10.40
2018-12-26T14:24:34.630Z,13.05
2018-12-26T14:27:29.349Z,16.07
2018-12-26T14:29:55.901Z,11.93
2018-12-26T14:32:26.179Z,9.40
2018-12-26T14:34:56.648Z,16.45
2018-12-26T14:37:27.030Z,10.43
2018-12-26T14:40:16.219Z,10.72
2018-12-26T14:45:22.784Z,14.43
2018-12-26T14:47:53.200Z,13.90
2018-12-26T14:50:42.369Z,28.02
2018-12-26T14:53:12.900Z,37.23
2018-12-26T14:55:43.597Z,37.70
2018-12-26T14:58:32.792Z,33.63
2018-12-26T15:01:03.063Z,28.92
2018-12-26T15:06:45.763Z,23.22
2018-12-26T15:09:16.072Z,20.48
2018-12-26T15:11:46.557Z,21.85
2018-12-26T15:14:16.884Z,19.23
2018-12-26T15:17:06.125Z,23.20
2018-12-26T15:19:36.573Z,14.68
2018-12-26T15:22:06.884Z,24.23
2018-12-26T15:24:37.186Z,20.57
2018-12-26T15:27:08.045Z,26.05
2018-12-26T15:29:38.299Z,22.42
2018-12-26T15:32:08.630Z,23.92
2018-12-26T15:34:39.749Z,25.65
2018-12-26T15:37:10.074Z,24.72
2018-12-26T15:39:40.481Z,29.27
2018-12-26T15:42:10.787Z,23.90
2018-12-26T15:44:41.118Z,27.25
2018-12-26T15:47:11.423Z,32.00
2018-12-26T15:49:41.755Z,32.95
2018-12-26T15:52:12.082Z,27.10
2018-12-26T15:55:01.287Z,29.02
2018-12-26T16:03:54.340Z,20.02
2018-12-26T16:06:35.793Z,16.50
2018-12-26T16:09:26.234Z,32.63
2018-12-26T16:11:56.956Z,24.25
2018-12-26T16:14:27.218Z,20.37
2018-12-26T16:16:57.608Z,20.77
2018-12-26T16:19:27.929Z,18.92
2018-12-26T16:21:58.221Z,18.23
2018-12-26T16:24:28.533Z,19.55
2018-12-26T16:26:58.840Z,19.10
2018-12-26T16:29:29.181Z,18.65
2018-12-26T16:31:59.536Z,16.85
2018-12-26T16:34:30.277Z,15.70
2018-12-26T16:39:55.509Z,19.50
2018-12-26T16:42:25.793Z,18.98
2018-12-26T16:44:56.115Z,18.15
2018-12-26T16:47:26.697Z,18.55
2018-12-26T16:49:57.111Z,12.98
2018-12-26T16:52:27.383Z,15.10
2018-12-26T16:54:57.781Z,17.15
2018-12-26T17:00:22.071Z,15.20
2018-12-26T17:02:52.339Z,20.97
2018-12-26T17:05:22.697Z,19.82
2018-12-26T17:07:53.173Z,18.35
2018-12-26T17:10:24.035Z,17.42
2018-12-26T17:12:54.744Z,18.20
2018-12-26T17:15:25.166Z,18.27
2018-12-26T17:17:55.463Z,22.00
2018-12-26T17:20:44.641Z,15.95
2018-12-26T17:23:14.975Z,11.50
2018-12-26T17:26:04.725Z,16.00
2018-12-26T17:28:34.990Z,13.08
2018-12-26T17:31:05.588Z,12.60
2018-12-26T17:33:36.016Z,16.52
2018-12-26T17:36:06.270Z,13.48
2018-12-26T17:38:36.971Z,15.78
2018-12-26T17:41:07.326Z,15.45
2018-12-26T17:43:56.624Z,16.10
2018-12-26T17:46:27.041Z,18.65
2018-12-26T17:48:57.437Z,16.50
2018-12-26T17:54:38.195Z,16.42
2018-12-26T17:57:19.345Z,18.00
2018-12-26T18:00:27.289Z,20.00
2018-12-26T18:02:57.778Z,19.02
2018-12-26T18:05:28.068Z,19.07
2018-12-26T18:08:17.171Z,20.08
2018-12-26T18:10:47.513Z,19.12
2018-12-26T18:13:17.792Z,17.45
2018-12-26T18:15:48.150Z,13.25
2018-12-26T18:18:18.434Z,14.35
2018-12-26T18:21:07.652Z,15.80
2018-12-26T18:23:38.105Z,16.35
2018-12-26T18:26:08.441Z,13.53
2018-12-26T18:28:38.756Z,13.88
2018-12-26T18:33:59.307Z,13.10
2018-12-26T18:36:29.531Z,13.50
2018-12-26T18:38:59.962Z,16.90
2018-12-26T18:41:30.402Z,20.45
2018-12-26T18:44:00.855Z,14.50
2018-12-26T18:46:31.117Z,18.45
2018-12-26T18:49:01.433Z,20.00
2018-12-26T18:51:31.651Z,17.62
2018-12-26T18:54:01.950Z,15.50
2018-12-26T18:56:32.384Z,14.98
2018-12-26T19:05:00.401Z,15.05
2018-12-26T19:07:49.655Z,16.77
2018-12-26T19:10:19.992Z,17.23
2018-12-26T19:12:50.254Z,18.02
2018-12-26T19:15:20.564Z,15.45
2018-12-26T19:17:51.028Z,15.38
2018-12-26T19:20:40.262Z,16.23
2018-12-26T19:23:10.574Z,14.43
2018-12-26T19:25:40.862Z,17.27
2018-12-26T19:28:11.261Z,22.37
2018-12-26T19:30:41.672Z,23.80
2018-12-26T19:33:30.729Z,20.80
2018-12-26T19:36:01.125Z,25.62
2018-12-26T19:38:31.484Z,22.13
2018-12-26T19:41:21.048Z,25.65
2018-12-26T19:43:51.329Z,19.10
2018-12-26T19:46:32.646Z,20.80
2018-12-26T19:51:51.206Z,15.53
2018-12-26T19:54:21.496Z,13.60
2018-12-26T19:56:51.798Z,13.70
2018-12-26T19:59:22.195Z,16.90
2018-12-26T20:01:52.856Z,13.93
2018-12-26T20:05:01.955Z,39.73
2018-12-26T20:07:33.033Z,19.73
2018-12-26T20:25:29.596Z,23.57
2018-12-26T20:27:59.953Z,24.27
2018-12-26T20:30:30.374Z,23.87
2018-12-26T20:33:00.753Z,22.45
2018-12-26T20:35:49.760Z,26.33
2018-12-26T20:38:20.277Z,20.95
2018-12-26T20:40:51.054Z,26.95
2018-12-26T20:43:21.437Z,21.87
2018-12-26T20:45:51.824Z,19.10
2018-12-26T20:48:33.405Z,16.37
2018-12-26T20:51:23.899Z,17.40
2018-12-26T20:53:54.750Z,18.12
2018-12-26T20:56:25.076Z,15.93
2018-12-26T20:59:14.228Z,14.70
2018-12-26T21:01:44.609Z,16.70
2018-12-26T21:04:14.966Z,13.32
2018-12-26T21:06:45.360Z,15.30
2018-12-26T21:09:16.144Z,14.68
2018-12-26T21:14:35.727Z,16.82
2018-12-26T21:17:06.096Z,14.98
2018-12-26T21:19:36.567Z,13.95
2018-12-26T21:22:06.937Z,14.18
2018-12-26T21:27:19.289Z,23.00
2018-12-26T21:29:49.672Z,13.48
2018-12-26T21:32:39.068Z,12.85
2018-12-26T21:37:58.619Z,13.40
2018-12-26T21:40:28.927Z,27.45
2018-12-26T21:49:08.102Z,12.20
2018-12-26T21:51:38.460Z,14.28
2018-12-26T21:54:08.728Z,11.12
2018-12-26T21:56:39.199Z,12.68
2018-12-26T21:59:09.606Z,14.45
2018-12-26T22:01:39.864Z,12.55
2018-12-26T22:04:10.172Z,13.55
2018-12-26T22:06:40.467Z,10.10
2018-12-26T22:09:29.733Z,14.07
2018-12-26T22:12:00.135Z,11.35
2018-12-26T22:14:30.454Z,13.65
2018-12-26T22:17:00.824Z,10.70
2018-12-26T22:22:20.662Z,10.82
2018-12-26T22:24:58.108Z,12.13
2018-12-26T22:27:28.455Z,12.28
2018-12-26T22:30:17.795Z,11.57
2018-12-26T22:33:26.987Z,11.48
2018-12-26T22:39:24.556Z,13.25
2018-12-26T22:42:06.042Z,13.40
2018-12-26T22:44:36.590Z,21.60
2018-12-26T22:47:25.642Z,12.63
2018-12-26T22:49:56.161Z,10.78
2018-12-26T22:52:26.419Z,10.90
2018-12-26T22:55:15.553Z,14.07
2018-12-26T22:57:45.889Z,14.45
2018-12-26T23:02:54.351Z,13.95
2018-12-26T23:16:54.122Z,14.58
2018-12-26T23:19:24.401Z,12.88
2018-12-26T23:21:54.686Z,13.65
2018-12-26T23:24:25.092Z,14.45
2018-12-26T23:27:14.388Z,16.70
2018-12-26T23:32:20.714Z,13.80
2018-12-26T23:34:51.542Z,20.10
2018-12-26T23:37:40.572Z,15.55
2018-12-26T23:40:10.956Z,15.00
2018-12-26T23:43:00.010Z,13.30
2018-12-26T23:45:30.366Z,16.62
2018-12-26T23:48:00.797Z,16.55
2018-12-26T23:50:31.251Z,12.98
2018-12-26T23:53:01.602Z,11.85
2018-12-26T23:55:31.879Z,15.10
2018-12-26T23:58:02.281Z,14.07
